Hauptseite
METAR-TAF:

METAR-TAF

Flughäfen :

Flughafen Valence-Chabeuil

Valence, Frankreich

Breite: 44-54-58N, Länge: 4-58-06E, Höhe: 160 m

Beobachtung

Neuester Wetterbericht von vor 36 Minuten, um 10:30 UTC
Wind 9 kt aus Nord, variierte zwischen West/Nordwest und Nordost
Temperatur 30°C
Luftfeuchtigkeit 35%
Luftdruck 1014 hPa
Sichtweite 10 km oder mehr
keine Wolken unter 1500 m und keine Kumulonimbus oder Gewitterwolken

METAR: LFLU 191030Z AUTO 01009KT 300V040 CAVOK 30/13 Q1014

Zeit: 13:06 (11:06 UTC)


TAF: fehlend

Wetterbeobachtungen und Prognosen von mehr als 4000 Flughäfen (METAR und TAF Bericht).

Die verfügbaren Stationen werden durch gelbe und rote Markierungen auf der Karte dargestellt.

Führen Sie die Maus auf sie, um den Namen der Station zu sehen.

Darauf klicken, um die Beobachtung von Wetterbeobachtungen und Prognosen zu sehen.

Um die Karte zu ändern : klicken Sie auf den grünen Tasten mit einem schwarzen Kreuz Zum Vergrößern, auf den grünen Button mit einem Gedankenstrich zu verkleinern, oder auf die grünen Pfeile für benachbarte Karten.


METAR-TAF: